Time;durP1;ratioP1;P1;durP2;ratioP2;P2;SDS_P1;SDS_P2;PMS_P1;PMS_P2;Temp;Humidity;BMP_temperature;BMP_pressure;BME280_temperature;BME280_humidity;BME280_pressure;Samples;Min_cycle;Max_cycle;Signal;HPM_P1;HPM_P2
2021/12/13 00:01:28;;;;;;;5.97;5.50;;;;;;;8.18;100.00;102120.09;4374064;32;20065;-78
2021/12/13 00:03:55;;;;;;;3.80;3.70;;;;;;;8.22;100.00;102127.00;4353303;32;20065;-80
2021/12/13 00:06:27;;;;;;;3.70;3.60;;;;;;;8.17;100.00;102123.59;4360995;32;20085;-80
2021/12/13 00:08:55;;;;;;;4.10;3.90;;;;;;;8.15;100.00;102117.53;4372534;32;20101;-79
2021/12/13 00:11:34;;;;;;;4.10;3.90;;;;;;;8.03;100.00;102100.31;4368152;32;20066;-79
2021/12/13 00:14:06;;;;;;;3.62;3.53;;;;;;;8.16;100.00;102127.12;4370396;32;20081;-81
2021/12/13 00:16:36;;;;;;;3.75;3.62;;;;;;;7.80;100.00;102064.19;4376778;32;20234;-82
2021/12/13 00:19:12;;;;;;;3.60;3.50;;;;;;;8.13;100.00;102120.16;4374777;32;20065;-79
2021/12/13 00:22:02;;;;;;;4.90;4.70;;;;;;;8.11;100.00;102121.94;4374754;32;20084;-79
2021/12/13 00:24:33;;;;;;;3.60;3.50;;;;;;;7.70;100.00;102060.00;4373986;32;20078;-79
2021/12/13 00:27:06;;;;;;;3.65;3.55;;;;;;;7.99;100.00;102106.50;4378643;32;20088;-80
2021/12/13 00:29:38;;;;;;;3.75;3.62;;;;;;;8.09;100.00;102139.41;4374071;32;20653;-78
2021/12/13 00:32:06;;;;;;;4.10;3.90;;;;;;;8.07;100.00;102122.91;4368511;32;20088;-81
2021/12/13 00:34:44;;;;;;;3.60;3.50;;;;;;;8.08;100.00;102126.38;4367839;32;20074;-80
2021/12/13 00:37:12;;;;;;;4.35;4.15;;;;;;;8.06;100.00;102133.38;4379437;32;20235;-79
2021/12/13 00:39:49;;;;;;;4.20;4.00;;;;;;;8.03;100.00;102121.22;4349989;32;20078;-79
2021/12/13 00:42:15;;;;;;;3.80;3.70;;;;;;;8.02;100.00;102129.97;4351148;32;20066;-79
2021/12/13 00:44:44;;;;;;;5.03;4.82;;;;;;;8.00;100.00;102134.38;4361262;32;20081;-78
2021/12/13 00:47:30;;;;;;;3.70;3.60;;;;;;;8.00;100.00;102126.53;4350777;32;20160;-79
2021/12/13 00:50:16;;;;;;;3.70;3.60;;;;;;;8.02;100.00;102129.97;4350637;32;20084;-79
2021/12/13 00:52:43;;;;;;;5.47;5.28;;;;;;;7.98;100.00;102137.00;4362844;32;20176;-79
2021/12/13 00:55:14;;;;;;;3.70;3.60;;;;;;;7.96;100.00;102133.56;4356415;32;20086;-79
2021/12/13 00:57:44;;;;;;;4.70;4.50;;;;;;;7.84;100.00;102115.50;4369441;32;20097;-80
2021/12/13 01:00:21;;;;;;;3.67;3.58;;;;;;;7.36;100.00;102040.56;4372807;32;20080;-79
2021/12/13 01:02:48;;;;;;;4.78;4.57;;;;;;;7.69;100.00;102095.72;4378654;32;20123;-77
2021/12/13 01:05:39;;;;;;;3.80;3.60;;;;;;;7.93;100.00;102136.22;4376309;32;20070;-78
2021/12/13 01:08:14;;;;;;;3.50;3.40;;;;;;;7.30;100.00;102031.97;4366518;32;20899;-78
2021/12/13 01:11:17;;;;;;;5.05;4.75;;;;;;;7.82;100.00;102134.69;4342304;32;20091;-77
2021/12/13 01:13:45;;;;;;;5.25;5.05;;;;;;;7.76;100.00;102128.69;4381655;32;20074;-79
2021/12/13 01:19:24;;;;;;;3.60;3.50;;;;;;;7.75;100.00;102139.16;4369420;32;20084;-79
2021/12/13 01:22:19;;;;;;;3.55;3.45;;;;;;;7.74;100.00;102140.94;4365605;32;20080;-79
2021/12/13 01:27:27;;;;;;;3.83;3.65;;;;;;;7.53;100.00;102107.31;4343646;32;20073;-78
2021/12/13 01:29:52;;;;;;;3.65;3.55;;;;;;;7.74;100.00;102145.31;4371281;32;20077;-80
2021/12/13 01:32:18;;;;;;;3.80;3.70;;;;;;;7.78;100.00;102147.81;4364306;32;20135;-77
2021/12/13 01:34:43;;;;;;;5.20;5.00;;;;;;;7.78;100.00;102139.13;4361694;32;20066;-79
2021/12/13 01:37:16;;;;;;;3.62;3.53;;;;;;;7.77;100.00;102148.69;4368682;32;20083;-79
2021/12/13 01:39:50;;;;;;;4.97;4.78;;;;;;;7.76;100.00;102136.53;4352867;32;20118;-79
2021/12/13 01:42:21;;;;;;;3.58;3.47;;;;;;;7.30;100.00;102058.09;4357844;32;20797;-78
2021/12/13 01:44:52;;;;;;;5.57;5.28;;;;;;;7.56;100.00;102113.34;4363176;32;20089;-78
2021/12/13 01:47:21;;;;;;;3.60;3.50;;;;;;;7.50;100.00;102107.38;4365732;32;20081;-79
2021/12/13 01:49:52;;;;;;;4.87;4.68;;;;;;;7.73;100.00;102143.56;4372230;32;20856;-78
2021/12/13 01:52:22;;;;;;;3.62;3.53;;;;;;;7.74;100.00;102153.13;4352875;32;20962;-77
2021/12/13 01:54:47;;;;;;;3.60;3.50;;;;;;;7.74;100.00;102145.31;4356595;32;20074;-80
2021/12/13 01:59:49;;;;;;;5.18;4.97;;;;;;;7.73;100.00;102154.00;4376658;32;20092;-77
2021/12/13 02:02:36;;;;;;;3.90;3.78;;;;;;;7.73;100.00;102156.63;4374881;32;20524;-78
2021/12/13 02:05:06;;;;;;;3.80;3.70;;;;;;;7.72;100.00;102168.84;4362515;32;20087;-79
2021/12/13 02:07:44;;;;;;;3.85;3.72;;;;;;;7.37;100.00;102096.25;4370222;32;20069;-79
2021/12/13 02:10:34;;;;;;;3.97;3.78;;;;;;;7.70;100.00;102160.16;4375260;32;20082;-79
2021/12/13 02:13:09;;;;;;;3.50;3.37;;;;;;;7.39;100.00;102107.53;4382005;32;20087;-80
2021/12/13 02:18:28;;;;;;;3.60;3.50;;;;;;;7.78;100.00;102153.06;4367490;32;20734;-78
2021/12/13 02:21:08;;;;;;;4.05;3.85;;;;;;;7.22;100.00;102071.28;4366519;32;20096;-79
2021/12/13 02:23:36;;;;;;;4.62;4.43;;;;;;;7.27;100.00;102095.53;4365091;32;22515;-81
2021/12/13 02:26:01;;;;;;;3.55;3.45;;;;;;;7.33;100.00;102084.13;4369535;32;20083;-78
2021/12/13 02:28:29;;;;;;;3.80;3.70;;;;;;;7.68;100.00;102132.34;4367413;32;20070;-78
2021/12/13 02:31:00;;;;;;;4.12;3.92;;;;;;;7.67;100.00;102128.84;4376721;32;20086;-77
2021/12/13 02:33:34;;;;;;;3.80;3.60;;;;;;;7.81;100.00;102149.50;4355076;32;20528;-78
2021/12/13 02:36:09;;;;;;;3.80;3.70;;;;;;;7.82;100.00;102152.97;4362768;32;20679;-79
2021/12/13 02:38:35;;;;;;;3.70;3.58;;;;;;;7.79;100.00;102154.75;4369243;32;20062;-81
2021/12/13 02:41:02;;;;;;;3.90;3.70;;;;;;;7.80;100.00;102150.41;4358535;32;20100;-79
2021/12/13 02:43:30;;;;;;;3.60;3.50;;;;;;;7.29;100.00;102070.25;4353873;32;21124;-77
2021/12/13 02:45:57;;;;;;;3.60;3.50;;;;;;;6.83;100.00;101979.66;4368716;32;20085;-78
2021/12/13 02:48:28;;;;;;;3.70;3.60;;;;;;;7.85;100.00;102145.97;4365401;32;20072;-78
2021/12/13 02:51:14;;;;;;;4.05;3.85;;;;;;;7.50;100.00;102089.94;4378079;32;20083;-79
2021/12/13 02:53:48;;;;;;;4.82;4.62;;;;;;;7.47;100.00;102076.94;4356579;32;20062;-78
2021/12/13 02:56:14;;;;;;;3.80;3.70;;;;;;;7.89;100.00;102162.44;4365564;32;20100;-78
2021/12/13 02:58:40;;;;;;;5.05;4.85;;;;;;;7.91;100.00;102153.69;4376956;32;20081;-78
2021/12/13 03:01:08;;;;;;;4.03;3.83;;;;;;;7.90;100.00;102141.53;4377330;32;20077;-78
2021/12/13 03:03:35;;;;;;;4.90;4.55;;;;;;;7.96;100.00;102145.78;4379899;32;20082;-77
2021/12/13 03:06:03;;;;;;;3.58;3.47;;;;;;;7.91;100.00;102145.84;4368194;32;20971;-78
2021/12/13 03:08:52;;;;;;;3.70;3.60;;;;;;;7.87;100.00;102140.72;4366448;32;20208;-79
2021/12/13 03:11:24;;;;;;;3.95;3.75;;;;;;;7.90;100.00;102154.59;4358964;32;20131;-78
2021/12/13 03:14:00;;;;;;;4.00;3.80;;;;;;;7.94;100.00;102171.09;4354576;32;20279;-78
2021/12/13 03:16:30;;;;;;;3.83;3.70;;;;;;;7.82;100.00;102138.19;4361789;32;20077;-78
2021/12/13 03:19:02;;;;;;;3.50;3.40;;;;;;;7.98;100.00;102167.53;4379577;32;20088;-79
2021/12/13 03:21:49;;;;;;;3.80;3.70;;;;;;;8.00;100.00;102173.59;4383557;32;20158;-78
2021/12/13 03:24:33;;;;;;;3.85;3.67;;;;;;;8.02;100.00;102177.03;4376577;32;20065;-77
2021/12/13 03:27:26;;;;;;;3.90;3.70;;;;;;;7.98;100.00;102165.78;4388453;32;20073;-78
2021/12/13 03:29:58;;;;;;;;;;;;;;;8.03;100.00;102176.13;4365242;32;20204;-76
2021/12/13 03:32:24;;;;;;;4.32;4.03;;;;;;;7.68;100.00;102114.91;4384459;32;20932;-77
2021/12/13 03:35:17;;;;;;;4.25;4.05;;;;;;;7.90;100.00;102156.34;4352869;32;20087;-79
2021/12/13 03:37:42;;;;;;;4.87;4.68;;;;;;;8.01;100.00;102177.06;4349938;32;20632;-78
2021/12/13 03:40:15;;;;;;;3.78;3.60;;;;;;;7.98;100.00;102173.63;4349806;32;20078;-77
2021/12/13 03:42:49;;;;;;;5.05;4.85;;;;;;;7.81;100.00;102154.75;4356243;32;20976;-78
2021/12/13 03:45:18;;;;;;;3.50;3.40;;;;;;;7.97;100.00;102182.34;4351848;32;20097;-77
2021/12/13 03:47:45;;;;;;;4.97;4.78;;;;;;;7.97;100.00;102179.72;4359340;32;20090;-80
2021/12/13 03:50:13;;;;;;;3.50;3.40;;;;;;;7.29;100.00;102061.56;4363155;32;20132;-77
2021/12/13 03:52:42;;;;;;;5.28;4.97;;;;;;;7.95;100.00;102184.09;4360891;32;20232;-79
2021/12/13 03:55:08;;;;;;;3.50;3.40;;;;;;;7.93;100.00;102188.50;4364962;32;20111;-79
2021/12/13 03:57:33;;;;;;;4.15;3.97;;;;;;;7.93;100.00;102183.28;4358050;32;20085;-80
2021/12/13 03:59:59;;;;;;;3.83;3.72;;;;;;;7.73;100.00;102151.41;4364822;32;20070;-80
2021/12/13 04:02:31;;;;;;;3.70;3.60;;;;;;;7.99;100.00;102192.78;4355747;32;20147;-77
2021/12/13 04:04:59;;;;;;;3.53;3.42;;;;;;;7.95;100.00;102199.78;4362460;32;20177;-77
2021/12/13 04:07:27;;;;;;;3.80;3.70;;;;;;;7.94;100.00;102197.22;4364394;32;20828;-79
2021/12/13 04:09:55;;;;;;;3.95;3.75;;;;;;;7.92;100.00;102194.62;4369449;32;20449;-78
2021/12/13 04:12:26;;;;;;;3.58;3.47;;;;;;;7.74;100.00;102168.81;4372604;32;20081;-79
2021/12/13 04:14:55;;;;;;;4.10;3.90;;;;;;;7.88;100.00;102194.72;4361105;32;20479;-79
2021/12/13 04:20:22;;;;;;;3.70;3.60;;;;;;;7.87;100.00;102187.75;4349569;32;20088;-80
2021/12/13 04:22:50;;;;;;;5.10;4.90;;;;;;;7.86;100.00;102188.63;4365522;32;20081;-78
2021/12/13 04:25:19;;;;;;;3.55;3.45;;;;;;;7.86;100.00;102191.25;4365023;32;20089;-78
2021/12/13 04:28:07;;;;;;;4.65;4.45;;;;;;;7.68;100.00;102163.69;4353779;32;20181;-78
2021/12/13 04:30:43;;;;;;;3.67;3.53;;;;;;;7.88;100.00;102190.34;4370386;32;20169;-81
2021/12/13 04:33:23;;;;;;;3.50;3.40;;;;;;;7.88;100.00;102189.50;4373691;32;20175;-79
2021/12/13 04:35:51;;;;;;;5.00;4.80;;;;;;;7.88;100.00;102190.34;4368078;32;20085;-78
2021/12/13 04:38:21;;;;;;;3.60;3.50;;;;;;;7.55;100.00;102137.75;4363959;32;20105;-78
2021/12/13 04:40:46;;;;;;;5.25;5.05;;;;;;;7.74;100.00;102168.81;4349774;32;20158;-78
2021/12/13 04:43:13;;;;;;;3.90;3.70;;;;;;;7.88;100.00;102192.09;4355080;32;20078;-80
2021/12/13 04:45:41;;;;;;;4.62;4.43;;;;;;;7.86;100.00;102197.34;4350955;32;20621;-79
2021/12/13 04:48:14;;;;;;;3.60;3.50;;;;;;;7.85;100.00;102195.63;4344019;32;20116;-78
2021/12/13 04:50:53;;;;;;;4.85;4.65;;;;;;;7.51;100.00;102132.59;4352053;32;20069;-77
2021/12/13 04:53:27;;;;;;;3.90;3.80;;;;;;;7.85;100.00;102202.59;4353948;32;20120;-79
2021/12/13 04:55:53;;;;;;;3.70;3.60;;;;;;;6.85;100.00;102027.44;4370711;32;21629;-78
2021/12/13 04:58:18;;;;;;;3.92;3.72;;;;;;;7.83;100.00;102192.16;4362331;32;20226;-80
2021/12/13 05:00:47;;;;;;;4.97;4.78;;;;;;;7.52;100.00;102148.25;4359030;32;20484;-80
2021/12/13 05:03:13;;;;;;;3.70;3.60;;;;;;;7.83;100.00;102209.59;4356637;32;20065;-79
2021/12/13 05:05:39;;;;;;;5.10;4.90;;;;;;;7.82;100.00;102200.91;4363241;32;20078;-78
2021/12/13 05:08:06;;;;;;;3.70;3.60;;;;;;;7.62;100.00;102166.38;4364347;32;20104;-78
2021/12/13 05:10:32;;;;;;;4.30;4.10;;;;;;;7.82;100.00;102206.13;4359087;32;20189;-80
2021/12/13 05:13:01;;;;;;;3.80;3.70;;;;;;;5.83;100.00;101876.78;4353141;32;20162;-79
2021/12/13 05:15:26;;;;;;;3.55;3.45;;;;;;;7.82;100.00;102200.91;4373450;32;20098;-79
2021/12/13 05:17:52;;;;;;;4.22;3.90;;;;;;;7.83;100.00;102209.59;4359370;32;21207;-78
2021/12/13 05:20:27;;;;;;;3.75;3.65;;;;;;;7.18;100.00;102093.09;4361363;32;20387;-79
2021/12/13 05:22:55;;;;;;;3.60;3.50;;;;;;;7.61;100.00;102173.38;4360981;32;20147;-78
2021/12/13 05:25:33;;;;;;;3.80;3.70;;;;;;;7.82;100.00;102203.53;4366962;32;20176;-80
2021/12/13 05:28:02;;;;;;;3.65;3.53;;;;;;;7.68;100.00;102182.84;4369285;32;20947;-78
2021/12/13 05:30:28;;;;;;;3.70;3.60;;;;;;;7.84;100.00;102204.34;4364844;32;20085;-79
2021/12/13 05:33:00;;;;;;;4.20;4.00;;;;;;;7.83;100.00;102205.22;4365141;32;21062;-78
2021/12/13 05:35:29;;;;;;;3.90;3.70;;;;;;;7.65;100.00;102176.78;4364915;32;20066;-78
2021/12/13 05:37:57;;;;;;;3.60;3.50;;;;;;;6.90;100.00;102049.12;4368192;32;20922;-78
2021/12/13 05:40:29;;;;;;;3.53;3.42;;;;;;;7.85;100.00;102205.22;4368013;32;20070;-79
2021/12/13 05:42:58;;;;;;;3.55;3.45;;;;;;;7.46;100.00;102139.66;4376798;32;20053;-76
2021/12/13 05:45:35;;;;;;;3.90;3.75;;;;;;;7.34;100.00;102125.06;4368847;32;20089;-77
2021/12/13 05:48:13;;;;;;;3.62;3.53;;;;;;;7.84;100.00;102208.69;4364814;32;20103;-77
2021/12/13 05:50:41;;;;;;;4.93;4.72;;;;;;;7.34;100.00;102138.97;4370424;32;20093;-79
2021/12/13 05:53:12;;;;;;;3.40;3.30;;;;;;;7.35;100.00;102132.84;4352871;32;20080;-78
2021/12/13 05:55:55;;;;;;;4.47;4.28;;;;;;;7.83;100.00;102214.84;4354633;32;20117;-79
2021/12/13 05:58:48;;;;;;;3.85;3.70;;;;;;;7.26;100.00;102127.78;4351592;32;20652;-79
2021/12/13 06:01:28;;;;;;;3.50;3.40;;;;;;;7.53;100.00;102175.25;4379090;32;20091;-76
2021/12/13 06:04:06;;;;;;;3.78;3.67;;;;;;;7.79;100.00;102220.09;4351315;32;20151;-76
2021/12/13 06:06:31;;;;;;;3.70;3.60;;;;;;;7.82;100.00;102221.81;4378618;32;20069;-78
2021/12/13 06:08:57;;;;;;;3.50;3.40;;;;;;;5.77;100.00;101915.94;4368549;32;20089;-77
2021/12/13 06:11:32;;;;;;;3.65;3.55;;;;;;;7.46;100.00;102169.25;4377365;32;20093;-77
2021/12/13 06:14:13;;;;;;;3.47;3.37;;;;;;;7.32;100.00;102151.19;4372000;32;20929;-77
2021/12/13 06:16:55;;;;;;;4.85;4.65;;;;;;;7.63;100.00;102194.25;4378438;32;20199;-78
2021/12/13 06:19:35;;;;;;;3.42;3.33;;;;;;;7.81;100.00;102227.91;4366331;32;20076;-78
2021/12/13 06:22:15;;;;;;;3.75;3.65;;;;;;;6.63;100.00;102029.53;4370112;32;20098;-77
2021/12/13 06:24:42;;;;;;;4.22;4.03;;;;;;;7.81;100.00;102227.91;4371185;32;20977;-76
2021/12/13 06:27:12;;;;;;;3.50;3.40;;;;;;;7.52;100.00;102181.38;4375922;32;20062;-77
2021/12/13 06:29:59;;;;;;;4.80;4.60;;;;;;;7.81;100.00;102230.53;4370187;32;20256;-77
2021/12/13 06:32:33;;;;;;;3.70;3.60;;;;;;;7.47;100.00;102173.56;4375406;32;20654;-78
2021/12/13 06:34:59;;;;;;;3.70;3.60;;;;;;;7.80;100.00;102234.06;4355902;32;20628;-79
2021/12/13 06:37:35;;;;;;;3.75;3.65;;;;;;;7.81;100.00;102253.19;4379916;32;20078;-79
2021/12/13 06:40:27;;;;;;;3.70;3.60;;;;;;;7.63;100.00;102200.31;4359910;32;20568;-77
2021/12/13 06:42:57;;;;;;;3.65;3.55;;;;;;;7.79;100.00;102229.69;4362049;32;20065;-78
2021/12/13 06:45:31;;;;;;;3.62;3.53;;;;;;;7.68;100.00;102203.75;4368225;32;20841;-78
2021/12/13 06:47:57;;;;;;;3.60;3.50;;;;;;;7.17;100.00;102130.50;4362303;32;20057;-77
2021/12/13 06:50:27;;;;;;;3.47;3.37;;;;;;;7.76;100.00;102237.59;4368455;32;20105;-77
2021/12/13 06:52:55;;;;;;;3.50;3.40;;;;;;;7.59;100.00;102209.97;4370008;32;20274;-77
2021/12/13 06:55:21;;;;;;;4.03;3.83;;;;;;;7.76;100.00;102235.84;4366095;32;20876;-76
2021/12/13 06:57:54;;;;;;;4.80;4.60;;;;;;;7.75;100.00;102228.03;4377043;32;20070;-77
2021/12/13 07:00:19;;;;;;;3.60;3.50;;;;;;;7.75;100.00;102228.03;4367050;32;20117;-78
2021/12/13 07:02:46;;;;;;;4.70;4.50;;;;;;;7.75;100.00;102223.66;4375974;32;20163;-79
2021/12/13 07:05:27;;;;;;;3.58;3.47;;;;;;;7.39;100.00;102168.47;4367306;32;20077;-79
2021/12/13 07:08:09;;;;;;;3.70;3.60;;;;;;;7.26;100.00;102150.41;4365682;32;20069;-77
2021/12/13 07:10:40;;;;;;;4.53;4.35;;;;;;;7.41;100.00;102176.28;4360509;32;20070;-76
2021/12/13 07:13:07;;;;;;;3.50;3.40;;;;;;;7.68;100.00;102222.03;4368996;32;20176;-78
2021/12/13 07:15:42;;;;;;;3.87;3.72;;;;;;;7.76;100.00;102232.38;4364123;32;20081;-80
2021/12/13 07:18:17;;;;;;;4.00;3.80;;;;;;;7.41;100.00;102178.91;4362104;32;20085;-78
2021/12/13 07:20:48;;;;;;;4.43;4.22;;;;;;;7.76;100.00;102241.06;4347587;32;20466;-79
2021/12/13 07:23:14;;;;;;;3.58;3.47;;;;;;;7.42;100.00;102183.25;4356119;32;20101;-77
2021/12/13 07:25:42;;;;;;;4.45;4.25;;;;;;;7.65;100.00;102221.22;4371529;32;20082;-76
2021/12/13 07:28:08;;;;;;;3.60;3.50;;;;;;;7.28;100.00;102159.94;4369899;32;20092;-79
2021/12/13 07:30:33;;;;;;;4.18;3.97;;;;;;;7.41;100.00;102175.44;4379150;32;20114;-78
2021/12/13 07:33:07;;;;;;;3.78;3.65;;;;;;;7.82;100.00;102254.91;4369005;32;20607;-78
2021/12/13 07:35:41;;;;;;;3.75;3.62;;;;;;;7.81;100.00;102253.19;4374638;32;20114;-79
2021/12/13 07:38:16;;;;;;;3.65;3.55;;;;;;;7.81;100.00;102264.50;4376214;32;20477;-77
2021/12/13 07:40:42;;;;;;;4.32;4.12;;;;;;;7.83;100.00;102267.97;4391125;32;20103;-81
2021/12/13 07:43:16;;;;;;;3.60;3.50;;;;;;;7.86;100.00;102261.81;4367224;32;20093;-80
2021/12/13 07:46:07;;;;;;;4.55;4.35;;;;;;;7.85;100.00;102255.72;4381783;32;20072;-81
2021/12/13 07:48:33;;;;;;;3.62;3.53;;;;;;;7.85;100.00;102258.34;4378961;32;20232;-81
2021/12/13 07:51:27;;;;;;;3.60;3.50;;;;;;;7.87;100.00;102268.78;4385152;32;20121;-81
2021/12/13 07:53:54;;;;;;;3.60;3.50;;;;;;;6.79;100.00;102088.44;4387994;32;20072;-82
2021/12/13 07:56:33;;;;;;;3.70;3.60;;;;;;;7.64;100.00;102235.16;4397752;32;20655;-81
2021/12/13 07:59:04;;;;;;;3.80;3.70;;;;;;;6.89;100.00;102103.94;4382932;32;20077;-81
2021/12/13 08:01:30;;;;;;;3.67;3.58;;;;;;;6.73;100.00;102083.28;4372410;32;20572;-82
2021/12/13 08:03:59;;;;;;;3.62;3.53;;;;;;;7.74;100.00;102253.28;4368845;32;20081;-81
2021/12/13 08:06:37;;;;;;;3.53;3.42;;;;;;;7.78;100.00;102264.56;4373669;32;20075;-81
2021/12/13 08:09:04;;;;;;;4.10;3.90;;;;;;;7.97;100.00;102292.13;4378531;32;20099;-82
2021/12/13 08:11:43;;;;;;;4.70;3.90;;;;;;;7.98;100.00;102299.09;4357758;32;20076;-81
2021/12/13 08:14:08;;;;;;;3.60;3.50;;;;;;;7.63;100.00;102239.53;4361478;32;20095;-81
2021/12/13 08:16:46;;;;;;;3.95;3.80;;;;;;;6.90;100.00;102116.12;4374458;32;20180;-82
2021/12/13 08:19:23;;;;;;;3.60;3.50;;;;;;;7.86;100.00;102277.50;4373839;32;20203;-81
2021/12/13 08:21:56;;;;;;;3.70;3.60;;;;;;;7.72;100.00;102262.06;4375821;32;20066;-80
2021/12/13 08:24:31;;;;;;;3.60;3.50;;;;;;;7.21;100.00;102194.00;4376345;32;20038;-81
2021/12/13 08:27:10;;;;;;;3.50;3.40;;;;;;;7.80;100.00;102262.81;4373367;32;20107;-80
2021/12/13 08:29:37;;;;;;;4.28;4.07;;;;;;;6.93;100.00;102127.38;4371027;32;20123;-79
2021/12/13 08:32:23;;;;;;;3.60;3.50;;;;;;;8.04;100.00;102316.44;4356421;32;20102;-80
2021/12/13 08:34:53;;;;;;;4.65;4.45;;;;;;;8.12;100.00;102327.66;4373630;32;20069;-78
2021/12/13 08:37:28;;;;;;;3.60;3.50;;;;;;;7.17;100.00;102167.91;4374395;32;20077;-82
2021/12/13 08:40:16;;;;;;;3.67;3.58;;;;;;;8.15;100.00;102326.72;4374474;32;20088;-82
2021/12/13 08:42:43;;;;;;;4.60;4.40;;;;;;;7.15;100.00;102154.03;4377661;32;20088;-80
2021/12/13 08:45:19;;;;;;;3.50;3.40;;;;;;;7.30;100.00;102176.47;4373728;32;20073;-83
2021/12/13 08:47:50;;;;;;;4.43;4.22;;;;;;;6.96;100.00;102122.13;4363730;32;20061;-82
2021/12/13 08:50:26;;;;;;;3.70;3.60;;;;;;;7.96;100.00;102284.34;4339493;32;20081;-82
2021/12/13 08:52:58;;;;;;;3.65;3.55;;;;;;;7.95;100.00;102283.44;4341612;32;20146;-81
2021/12/13 08:55:30;;;;;;;3.70;3.60;;;;;;;7.90;100.00;102269.59;4351897;32;20081;-81
2021/12/13 08:57:55;;;;;;;3.60;3.50;;;;;;;8.29;100.00;102324.75;4343140;32;20094;-81
2021/12/13 09:00:42;;;;;;;3.80;3.70;;;;;;;8.32;100.00;102324.72;4366485;32;20081;-82
2021/12/13 09:03:10;;;;;;;3.60;3.50;;;;;;;8.32;100.00;102319.47;4367420;32;20460;-83
2021/12/13 09:06:16;;;;;;;3.90;3.75;;;;;;;8.18;100.00;102290.09;4367005;32;20074;-81
2021/12/13 09:08:52;;;;;;;4.40;4.20;;;;;;;8.35;100.00;102315.94;4326877;33;20372;-81
2021/12/13 09:11:24;;;;;;;3.70;3.60;;;;;;;8.11;100.00;102263.16;4366824;32;20097;-82
2021/12/13 09:13:53;;;;;;;4.20;4.00;;;;;;;8.24;100.00;102283.87;4382233;32;20260;-82
2021/12/13 09:16:21;;;;;;;3.60;3.50;;;;;;;6.86;100.00;102049.22;4372951;32;20196;-81
2021/12/13 09:18:48;;;;;;;4.10;3.90;;;;;;;8.44;100.00;102315.84;4373115;32;20066;-80
2021/12/13 09:21:17;;;;;;;3.60;3.50;;;;;;;8.30;100.00;102305.56;4361290;32;20081;-80
2021/12/13 09:23:45;;;;;;;5.10;4.90;;;;;;;8.36;100.00;102295.00;4374974;32;20650;-81
2021/12/13 09:26:19;;;;;;;3.53;3.42;;;;;;;8.51;100.00;102319.19;4362010;32;20065;-81
2021/12/13 09:28:48;;;;;;;4.72;4.53;;;;;;;7.83;100.00;102205.22;4370032;32;20101;-80
2021/12/13 09:31:17;;;;;;;3.53;3.42;;;;;;;8.41;100.00;102301.91;4389173;32;20093;-81
2021/12/13 09:33:53;;;;;;;4.55;4.35;;;;;;;8.58;100.00;102336.53;4378403;32;20053;-82
2021/12/13 09:36:26;;;;;;;3.70;3.60;;;;;;;8.27;100.00;102284.69;4390753;32;20101;-81
2021/12/13 09:39:01;;;;;;;4.10;3.90;;;;;;;8.63;100.00;102347.75;4386576;32;20065;-81
2021/12/13 09:41:36;;;;;;;3.60;3.50;;;;;;;8.67;100.00;102336.34;4377573;32;20164;-83
2021/12/13 09:44:08;;;;;;;4.10;3.90;;;;;;;8.69;100.00;102334.56;4396112;32;20195;-82
2021/12/13 09:46:44;;;;;;;4.15;3.95;;;;;;;8.72;100.00;102334.53;4390741;32;20038;-81
2021/12/13 09:49:12;;;;;;;4.10;3.90;;;;;;;8.78;100.00;102344.03;4394874;32;20282;-80
2021/12/13 09:51:45;;;;;;;4.28;4.07;;;;;;;8.77;100.00;102344.91;4375739;32;20505;-79
2021/12/13 09:54:10;;;;;;;3.97;3.80;;;;;;;4.98;100.00;101707.84;4356813;32;20069;-79
2021/12/13 09:56:37;;;;;;;4.55;4.35;;;;;;;8.79;100.00;102346.59;4358308;32;20070;-79
2021/12/13 09:59:11;;;;;;;4.20;4.00;;;;;;;8.83;100.00;102342.16;4354543;32;20083;-79
2021/12/13 10:01:37;;;;;;;5.05;4.85;;;;;;;7.28;100.00;102093.81;4355271;32;20062;-80
2021/12/13 10:04:11;;;;;;;3.65;3.55;;;;;;;6.79;100.00;102004.06;4358361;32;21054;-80
2021/12/13 10:06:38;;;;;;;4.75;4.55;;;;;;;8.85;100.00;102347.38;4366753;32;20065;-80
2021/12/13 10:09:08;;;;;;;4.10;3.90;;;;;;;8.36;100.00;102263.59;4369876;32;20083;-80
2021/12/13 10:11:38;;;;;;;3.80;3.67;;;;;;;8.68;100.00;102298.81;4361599;32;20092;-81
2021/12/13 10:14:04;;;;;;;4.00;3.80;;;;;;;8.91;100.00;102328.94;4367585;32;20085;-80
2021/12/13 10:16:33;;;;;;;4.00;3.80;;;;;;;8.88;100.00;102323.75;4358050;32;20069;-82
2021/12/13 10:18:59;;;;;;;3.87;3.78;;;;;;;7.96;100.00;102172.78;4359603;32;20220;-79
2021/12/13 10:21:27;;;;;;;3.78;3.67;;;;;;;8.90;100.00;102335.06;4357593;32;20246;-80
2021/12/13 10:24:06;;;;;;;3.85;3.75;;;;;;;7.76;100.00;102127.84;4353030;32;20144;-80
2021/12/13 10:26:36;;;;;;;3.92;3.75;;;;;;;9.03;100.00;102339.16;4355065;32;20061;-81
2021/12/13 10:29:04;;;;;;;3.97;3.78;;;;;;;8.90;100.00;102306.25;4367518;32;20081;-80
2021/12/13 10:31:38;;;;;;;3.78;3.67;;;;;;;9.16;100.00;102332.81;4346237;32;20083;-80
2021/12/13 10:34:06;;;;;;;3.65;3.55;;;;;;;9.19;100.00;102327.50;4358774;32;20084;-79
2021/12/13 10:36:32;;;;;;;3.62;3.53;;;;;;;8.37;99.03;102185.97;4350748;32;20069;-81
2021/12/13 10:39:07;;;;;;;3.80;3.70;;;;;;;9.16;99.74;102306.62;4355270;32;20227;-80
2021/12/13 10:41:36;;;;;;;3.97;3.78;;;;;;;8.66;98.44;102216.87;4357248;32;20120;-80
2021/12/13 10:44:08;;;;;;;4.05;3.85;;;;;;;8.37;98.28;102139.75;4354244;32;20453;-80
2021/12/13 10:46:36;;;;;;;4.10;3.95;;;;;;;9.01;97.17;102248.44;4340360;32;20620;-80
2021/12/13 10:49:11;;;;;;;3.80;3.70;;;;;;;7.37;97.67;101971.75;4365994;32;20183;-80
2021/12/13 10:51:39;;;;;;;4.30;4.10;;;;;;;8.70;96.47;102181.88;4356614;32;20066;-81
2021/12/13 10:54:13;;;;;;;4.28;4.07;;;;;;;9.45;96.42;102304.28;4370845;32;20091;-78
2021/12/13 10:56:48;;;;;;;4.65;4.45;;;;;;;9.09;96.11;102252.62;4373843;32;20640;-78
2021/12/13 10:59:19;;;;;;;4.30;4.10;;;;;;;9.48;96.06;102315.56;4363515;32;20093;-80
2021/12/13 11:01:46;;;;;;;4.95;4.75;;;;;;;8.87;95.41;102219.94;4354708;32;20070;-80
2021/12/13 11:04:15;;;;;;;4.07;3.87;;;;;;;9.18;95.31;102269.88;4365451;32;20077;-79
2021/12/13 11:06:40;;;;;;;4.72;4.53;;;;;;;9.35;96.21;102299.22;4356435;32;20116;-80
2021/12/13 11:09:08;;;;;;;4.00;3.85;;;;;;;9.28;96.48;102291.53;4357466;32;20077;-80
2021/12/13 11:11:40;;;;;;;4.35;4.15;;;;;;;9.22;95.92;102305.63;4363333;32;20066;-80
2021/12/13 11:14:08;;;;;;;4.05;3.85;;;;;;;9.33;96.22;102310.63;4374622;32;20066;-81
2021/12/13 11:16:41;;;;;;;3.92;3.78;;;;;;;9.38;96.09;102327.09;4367557;32;20159;-80
2021/12/13 11:19:11;;;;;;;4.10;3.90;;;;;;;8.63;95.71;102205.59;4373732;32;20135;-81
2021/12/13 11:21:37;;;;;;;4.53;4.32;;;;;;;9.32;96.71;102327.25;4368463;32;20093;-80
2021/12/13 11:24:06;;;;;;;3.85;3.75;;;;;;;8.33;96.79;102156.41;4363473;32;20113;-79
2021/12/13 11:26:32;;;;;;;4.00;3.80;;;;;;;9.32;96.85;102322.00;4370956;32;20069;-80
2021/12/13 11:28:58;;;;;;;4.00;3.80;;;;;;;8.63;96.93;102206.44;4369612;32;22445;-82
2021/12/13 11:31:30;;;;;;;3.92;3.80;;;;;;;9.47;96.77;102319.06;4384129;32;20080;-80
2021/12/13 11:34:02;;;;;;;4.10;3.90;;;;;;;9.47;96.78;102326.06;4381013;32;20209;-80
2021/12/13 11:36:36;;;;;;;3.87;3.78;;;;;;;9.47;95.46;102324.31;4385574;32;20587;-81
2021/12/13 11:39:29;;;;;;;3.92;3.78;;;;;;;9.51;96.06;102332.97;4379344;32;20207;-81
2021/12/13 11:42:25;;;;;;;4.05;3.85;;;;;;;9.56;96.00;102337.22;4378201;32;20093;-83
2021/12/13 11:45:33;;;;;;;4.30;4.10;;;;;;;9.51;95.22;102325.09;4380785;32;20276;-82
2021/12/13 11:48:30;;;;;;;4.03;3.83;;;;;;;9.51;95.04;102323.34;4374429;32;20069;-81
2021/12/13 11:51:23;;;;;;;4.70;4.28;;;;;;;9.56;94.50;102328.47;4391155;32;20082;-81
2021/12/13 11:53:59;;;;;;;4.60;4.40;;;;;;;9.53;94.87;102303.19;4377105;32;20066;-81
2021/12/13 11:56:47;;;;;;;4.00;3.83;;;;;;;9.66;95.36;102314.31;4361246;32;20092;-80
2021/12/13 11:59:35;;;;;;;4.25;4.05;;;;;;;9.68;95.77;102324.72;4368745;32;20196;-81
2021/12/13 12:02:06;;;;;;;4.05;3.85;;;;;;;9.03;94.90;102203.00;4371056;32;20073;-80
2021/12/13 12:04:46;;;;;;;4.20;4.00;;;;;;;9.72;94.24;102323.75;4353285;32;20156;-80
2021/12/13 12:07:36;;;;;;;4.18;3.97;;;;;;;9.80;94.63;102321.81;4376315;32;20086;-80